08D

Stanley Municipal Airport

Stanley, North Dakota, USA
METAR K08D 201815Z AUTO 12012KT 5SM HZ 07/04 A3026 RMK AO2
Observed Flight Rules
Apr-20 @ 18:15 UTC (18 minutes ago)
Wind Visibility Conditions
120° at 12 knots 5 miles
  • Haze
Temperatures Readings
Current 7°C / 45°F
Dewpoint 4°C / 39°F
Humidity 81%
Altimeter 30.26" Hg
Pressure 1025 hPa
Elevation 684
METAR K08D 201815Z AUTO 12012KT 5SM HZ 07/04 A3026 RMK AO2
Observed Flight Rules
Apr-20 @ 18:15 UTC
(18 minutes ago)
Wind Visibility
120° at 12 knots 5 miles
Conditions
  • Haze
Temperature Dewpoint
7°C / 45°F 4°C / 39°F
Humidity Altimeter Pressure
81% 30.26" Hg 1025 hPa